createdAt,value
2019-01-27T00:01:37.678Z,4.37
2019-01-27T00:04:46.304Z,4.36
2019-01-27T00:07:15.490Z,4.37
2019-01-27T00:09:44.746Z,4.40
2019-01-27T00:12:13.925Z,4.35
2019-01-27T00:14:43.116Z,4.36
2019-01-27T00:17:12.370Z,4.29
2019-01-27T00:19:41.573Z,4.24
2019-01-27T00:22:10.809Z,4.23
2019-01-27T00:24:39.993Z,4.24
2019-01-27T00:27:09.232Z,4.20
2019-01-27T00:29:38.412Z,4.21
2019-01-27T00:32:07.599Z,4.14
2019-01-27T00:34:36.896Z,4.14
2019-01-27T00:37:06.083Z,4.13
2019-01-27T00:39:35.315Z,4.13
2019-01-27T00:42:04.809Z,4.11
2019-01-27T00:44:34.048Z,4.08
2019-01-27T00:47:03.247Z,4.09
2019-01-27T00:49:32.489Z,4.04
2019-01-27T00:52:02.005Z,3.99
2019-01-27T00:54:31.376Z,3.99
2019-01-27T00:57:00.690Z,3.92
2019-01-27T00:59:29.940Z,3.91
2019-01-27T01:01:59.129Z,3.87
2019-01-27T01:04:28.710Z,3.90
2019-01-27T01:06:57.895Z,3.86
2019-01-27T01:09:27.131Z,3.88
2019-01-27T01:11:56.607Z,3.88
2019-01-27T01:14:26.220Z,3.89
2019-01-27T01:16:55.402Z,3.91
2019-01-27T01:19:24.638Z,3.91
2019-01-27T01:21:53.817Z,3.92
2019-01-27T01:24:23.056Z,3.93
2019-01-27T01:26:52.618Z,3.92
2019-01-27T01:29:21.864Z,3.87
2019-01-27T01:31:51.043Z,3.92
2019-01-27T01:34:20.339Z,3.90
2019-01-27T01:36:49.808Z,3.94
2019-01-27T01:39:19.050Z,3.90
2019-01-27T01:41:48.231Z,3.90
2019-01-27T01:44:18.124Z,3.91
2019-01-27T01:46:47.293Z,3.95
2019-01-27T01:49:16.539Z,3.94
2019-01-27T01:51:45.719Z,3.93
2019-01-27T01:54:14.966Z,3.96
2019-01-27T01:56:44.153Z,3.95
2019-01-27T01:59:13.398Z,4.04
2019-01-27T02:01:42.608Z,3.99
2019-01-27T02:04:11.836Z,4.02
2019-01-27T02:06:41.071Z,3.99
2019-01-27T02:09:13.083Z,3.97
2019-01-27T02:11:42.256Z,3.97
2019-01-27T02:14:11.874Z,3.98
2019-01-27T02:16:41.055Z,3.96
2019-01-27T02:19:10.232Z,3.99
2019-01-27T02:21:39.472Z,3.99
2019-01-27T02:24:08.751Z,3.96
2019-01-27T02:26:37.992Z,3.93
2019-01-27T02:29:07.169Z,3.88
2019-01-27T02:31:36.506Z,3.88
2019-01-27T02:34:05.964Z,3.87
2019-01-27T02:36:35.198Z,3.85
2019-01-27T02:42:14.895Z,3.80
2019-01-27T02:44:44.082Z,3.86
2019-01-27T02:47:13.349Z,3.86
2019-01-27T02:49:42.540Z,3.81
2019-01-27T02:52:11.724Z,3.80
2019-01-27T02:54:40.961Z,3.77
2019-01-27T02:57:10.151Z,3.83
2019-01-27T02:59:39.380Z,3.78
2019-01-27T03:02:08.654Z,3.73
2019-01-27T03:04:37.886Z,3.67
2019-01-27T03:07:46.472Z,3.66
2019-01-27T03:10:16.216Z,3.66
2019-01-27T03:12:45.742Z,3.68
2019-01-27T03:15:54.368Z,3.69
2019-01-27T03:18:23.550Z,3.70
2019-01-27T03:20:52.792Z,3.67
2019-01-27T03:23:21.972Z,3.65
2019-01-27T03:25:51.200Z,3.64
2019-01-27T03:28:20.384Z,3.63
2019-01-27T03:30:49.638Z,3.63
2019-01-27T03:33:18.830Z,3.62
2019-01-27T03:35:55.430Z,3.61
2019-01-27T03:38:24.612Z,3.58
2019-01-27T03:40:53.791Z,3.58
2019-01-27T03:43:23.030Z,3.56
2019-01-27T03:45:52.211Z,3.61
2019-01-27T03:48:21.437Z,3.59
2019-01-27T03:50:50.629Z,3.57
2019-01-27T03:53:19.857Z,3.55
2019-01-27T03:55:49.446Z,3.52
2019-01-27T03:58:18.680Z,3.54
2019-01-27T04:00:47.862Z,3.50
2019-01-27T04:03:17.410Z,3.49
2019-01-27T04:05:46.921Z,3.55
2019-01-27T04:08:16.212Z,3.58
2019-01-27T04:10:45.733Z,3.71
2019-01-27T04:13:15.002Z,3.74
2019-01-27T04:15:44.216Z,3.72
2019-01-27T04:18:13.413Z,3.66
2019-01-27T04:20:42.644Z,3.60
2019-01-27T04:23:12.123Z,3.62
2019-01-27T04:25:43.337Z,3.64
2019-01-27T04:28:12.509Z,3.66
2019-01-27T04:30:41.755Z,3.60
2019-01-27T04:33:10.930Z,3.62
2019-01-27T04:35:40.573Z,3.54
2019-01-27T04:38:09.768Z,3.47
2019-01-27T04:40:38.999Z,3.45
2019-01-27T04:43:08.195Z,3.34
2019-01-27T04:48:14.215Z,3.14
2019-01-27T04:50:43.449Z,3.10
2019-01-27T04:53:12.633Z,3.08
2019-01-27T04:55:41.888Z,2.99
2019-01-27T04:58:11.086Z,2.99
2019-01-27T05:00:40.252Z,3.09
2019-01-27T05:03:28.481Z,3.11
2019-01-27T05:05:57.660Z,3.10
2019-01-27T05:08:26.900Z,3.09
2019-01-27T05:10:56.080Z,3.08
2019-01-27T05:13:25.329Z,3.11
2019-01-27T05:15:54.507Z,3.15
2019-01-27T05:18:24.094Z,3.20
2019-01-27T05:20:53.275Z,3.23
2019-01-27T05:23:22.512Z,3.26
2019-01-27T05:25:52.100Z,3.24
2019-01-27T05:28:21.348Z,3.24
2019-01-27T05:30:50.868Z,3.29
2019-01-27T05:33:20.474Z,3.28
2019-01-27T05:35:49.712Z,3.30
2019-01-27T05:38:18.976Z,3.28
2019-01-27T05:40:48.163Z,3.39
2019-01-27T05:43:17.362Z,3.41
2019-01-27T05:45:46.983Z,3.39
2019-01-27T05:48:35.163Z,3.42
2019-01-27T05:51:04.452Z,3.42
2019-01-27T05:53:33.783Z,3.51
2019-01-27T05:56:03.042Z,3.53
2019-01-27T05:58:32.235Z,3.59
2019-01-27T06:01:01.484Z,3.64
2019-01-27T06:03:31.018Z,3.68
2019-01-27T06:06:00.252Z,3.69
2019-01-27T06:08:29.441Z,3.74
2019-01-27T06:10:58.691Z,3.79
2019-01-27T06:13:27.883Z,3.84
2019-01-27T06:15:57.149Z,3.87
2019-01-27T06:18:26.326Z,3.89
2019-01-27T06:20:55.506Z,3.94
2019-01-27T06:23:24.742Z,3.94
2019-01-27T06:25:53.925Z,3.98
2019-01-27T06:28:23.151Z,4.00
2019-01-27T06:30:52.344Z,3.99
2019-01-27T06:33:26.445Z,3.92
2019-01-27T06:35:55.682Z,3.90
2019-01-27T06:38:24.918Z,3.90
2019-01-27T06:40:54.104Z,3.88
2019-01-27T06:43:23.346Z,3.87
2019-01-27T06:45:52.951Z,3.84
2019-01-27T06:48:22.139Z,3.84
2019-01-27T06:50:51.316Z,3.81
2019-01-27T06:53:20.584Z,3.81
2019-01-27T06:55:49.818Z,3.85
2019-01-27T06:58:19.037Z,3.87
2019-01-27T07:01:07.151Z,3.93
2019-01-27T07:03:55.329Z,3.96
2019-01-27T07:06:43.492Z,4.01
2019-01-27T07:09:31.801Z,4.04
2019-01-27T07:12:20.233Z,4.11
2019-01-27T07:15:08.408Z,4.14
2019-01-27T07:17:56.564Z,4.15
2019-01-27T07:20:44.763Z,4.19
2019-01-27T07:23:33.160Z,4.21
2019-01-27T07:26:21.326Z,4.19
2019-01-27T07:29:09.448Z,4.21
2019-01-27T07:31:57.722Z,4.18
2019-01-27T07:34:45.841Z,4.22
2019-01-27T07:37:34.067Z,4.19
2019-01-27T07:40:22.343Z,4.28
2019-01-27T07:43:10.502Z,4.26
2019-01-27T07:45:58.680Z,4.36
2019-01-27T07:48:47.221Z,4.37
2019-01-27T07:51:35.427Z,4.38
2019-01-27T07:57:32.235Z,4.46
2019-01-27T08:00:20.353Z,4.42
2019-01-27T08:03:12.112Z,4.37
2019-01-27T08:05:46.497Z,4.32
2019-01-27T08:08:34.671Z,4.32
2019-01-27T08:11:22.876Z,4.29
2019-01-27T08:14:11.052Z,4.27
2019-01-27T08:16:59.365Z,4.31
2019-01-27T08:19:47.534Z,4.35
2019-01-27T08:22:35.672Z,4.39
2019-01-27T08:25:44.340Z,4.46
2019-01-27T08:28:33.842Z,4.51
2019-01-27T08:31:22.802Z,4.67
2019-01-27T08:34:10.913Z,4.73
2019-01-27T08:36:59.155Z,4.74
2019-01-27T08:39:47.597Z,4.82
2019-01-27T08:42:35.711Z,4.87
2019-01-27T08:45:44.694Z,4.96
2019-01-27T08:48:14.005Z,5.06
2019-01-27T08:50:43.240Z,5.10
2019-01-27T08:53:12.754Z,5.06
2019-01-27T08:55:42.722Z,5.02
2019-01-27T08:58:11.899Z,5.10
2019-01-27T09:03:42.499Z,5.24
2019-01-27T09:06:30.667Z,5.32
2019-01-27T09:09:19.461Z,5.32
2019-01-27T09:12:00.132Z,5.25
2019-01-27T09:14:48.242Z,5.18
2019-01-27T09:17:36.407Z,5.13
2019-01-27T09:20:26.483Z,5.15
2019-01-27T09:23:14.705Z,5.17
2019-01-27T09:25:59.523Z,5.06
2019-01-27T09:28:33.487Z,5.08
2019-01-27T09:31:21.600Z,5.15
2019-01-27T09:34:13.296Z,5.12
2019-01-27T09:36:59.790Z,5.08
2019-01-27T09:39:47.966Z,5.11
2019-01-27T09:42:36.075Z,5.16
2019-01-27T09:45:57.620Z,5.13
2019-01-27T09:48:34.580Z,5.11
2019-01-27T09:51:22.757Z,5.05
2019-01-27T09:54:11.205Z,5.09
2019-01-27T09:56:59.321Z,5.15
2019-01-27T09:59:47.485Z,5.19
2019-01-27T10:02:35.734Z,5.21
2019-01-27T10:05:44.534Z,5.27
2019-01-27T10:08:32.649Z,5.34
2019-01-27T10:11:10.833Z,5.41
2019-01-27T10:13:58.943Z,5.44
2019-01-27T10:16:47.108Z,5.48
2019-01-27T10:19:23.719Z,5.56
2019-01-27T10:22:11.886Z,5.63
2019-01-27T10:25:00.005Z,5.68
2019-01-27T10:27:35.820Z,5.65
2019-01-27T10:30:45.832Z,5.83
2019-01-27T10:33:34.122Z,5.97
2019-01-27T10:36:14.243Z,6.22
2019-01-27T10:39:21.423Z,6.28
2019-01-27T10:42:06.107Z,6.44
2019-01-27T10:44:54.278Z,6.53
2019-01-27T10:47:42.391Z,6.60
2019-01-27T10:50:32.785Z,6.63
2019-01-27T10:53:21.114Z,6.69
2019-01-27T10:55:56.526Z,6.75
2019-01-27T10:58:44.638Z,6.79
2019-01-27T11:01:32.810Z,6.85
2019-01-27T11:04:20.998Z,6.89
2019-01-27T11:07:09.402Z,6.97
2019-01-27T11:09:54.546Z,7.08
2019-01-27T11:12:40.971Z,7.16
2019-01-27T11:15:33.446Z,7.16
2019-01-27T11:18:23.216Z,7.16
2019-01-27T11:21:11.377Z,7.23
2019-01-27T11:23:59.487Z,7.24
2019-01-27T11:26:45.540Z,7.30
2019-01-27T11:29:33.659Z,7.32
2019-01-27T11:32:22.160Z,7.26
2019-01-27T11:35:10.279Z,7.29
2019-01-27T11:37:58.497Z,7.32
2019-01-27T11:40:46.747Z,7.30
2019-01-27T11:43:34.922Z,7.38
2019-01-27T11:46:23.402Z,7.38
2019-01-27T11:49:30.578Z,7.31
2019-01-27T11:52:03.779Z,7.38
2019-01-27T11:54:33.014Z,7.31
2019-01-27T11:57:02.197Z,7.34
2019-01-27T11:59:31.554Z,7.42
2019-01-27T12:02:19.801Z,7.47
2019-01-27T12:04:49.041Z,7.41
2019-01-27T12:07:18.219Z,7.41
2019-01-27T12:09:47.544Z,7.48
2019-01-27T12:12:17.106Z,7.51
2019-01-27T12:14:46.632Z,7.54
2019-01-27T12:17:17.193Z,7.52
2019-01-27T12:19:46.438Z,7.56
2019-01-27T12:22:15.655Z,7.62
2019-01-27T12:24:44.852Z,7.65
2019-01-27T12:27:14.443Z,7.65
2019-01-27T12:29:43.624Z,7.64
2019-01-27T12:32:12.943Z,7.67
2019-01-27T12:34:42.139Z,7.66
2019-01-27T12:37:11.742Z,7.63
2019-01-27T12:39:40.928Z,7.56
2019-01-27T12:42:10.299Z,7.65
2019-01-27T12:47:27.758Z,7.66
2019-01-27T12:49:56.944Z,7.65
2019-01-27T12:52:26.167Z,7.67
2019-01-27T12:54:55.952Z,7.69
2019-01-27T12:57:25.232Z,7.72
2019-01-27T12:59:54.413Z,7.75
2019-01-27T13:02:23.993Z,7.74
2019-01-27T13:04:53.185Z,7.82
2019-01-27T13:07:22.362Z,7.67
2019-01-27T13:09:51.610Z,7.76
2019-01-27T13:12:21.095Z,7.82
2019-01-27T13:14:50.338Z,7.88
2019-01-27T13:17:19.528Z,7.92
2019-01-27T13:19:53.735Z,7.93
2019-01-27T13:22:19.684Z,7.90
2019-01-27T13:27:23.423Z,7.89
2019-01-27T13:29:52.661Z,7.95
2019-01-27T13:32:21.846Z,7.98
2019-01-27T13:37:25.339Z,8.04
2019-01-27T13:39:55.062Z,7.99
2019-01-27T13:42:24.250Z,7.97
2019-01-27T13:44:53.482Z,8.03
2019-01-27T13:47:22.670Z,8.07
2019-01-27T13:49:51.921Z,8.06
2019-01-27T13:52:21.102Z,8.15
2019-01-27T13:54:50.282Z,8.16
2019-01-27T13:57:19.531Z,8.11
2019-01-27T13:59:48.716Z,8.06
2019-01-27T14:02:17.956Z,7.96
2019-01-27T14:04:48.570Z,7.98
2019-01-27T14:07:18.189Z,7.95
2019-01-27T14:09:47.489Z,7.90
2019-01-27T14:12:16.751Z,7.94
2019-01-27T14:14:45.914Z,7.99
2019-01-27T14:17:15.427Z,8.03
2019-01-27T14:19:44.732Z,7.98
2019-01-27T14:22:13.961Z,7.93
2019-01-27T14:24:43.141Z,7.84
2019-01-27T14:27:12.714Z,7.77
2019-01-27T14:29:41.901Z,7.65
2019-01-27T14:32:11.134Z,7.58
2019-01-27T14:34:40.309Z,7.64
2019-01-27T14:37:09.571Z,7.48
2019-01-27T14:39:38.793Z,7.44
2019-01-27T14:42:07.963Z,7.29
2019-01-27T14:44:37.211Z,7.22
2019-01-27T14:47:06.410Z,7.12
2019-01-27T14:49:35.633Z,7.05
2019-01-27T14:52:04.911Z,7.10
2019-01-27T14:54:34.482Z,7.06
2019-01-27T14:57:03.674Z,7.03
2019-01-27T14:59:32.909Z,6.99
2019-01-27T15:02:02.079Z,7.02
2019-01-27T15:04:31.333Z,6.98
2019-01-27T15:07:00.514Z,6.95
2019-01-27T15:09:30.400Z,6.96
2019-01-27T15:11:59.580Z,7.01
2019-01-27T15:14:28.810Z,7.03
2019-01-27T15:16:58.378Z,7.03
2019-01-27T15:19:27.605Z,7.02
2019-01-27T15:21:56.783Z,7.10
2019-01-27T15:24:26.025Z,7.06
2019-01-27T15:26:55.197Z,7.15
2019-01-27T15:29:24.434Z,7.15
2019-01-27T15:31:53.612Z,7.08
2019-01-27T15:34:22.914Z,7.12
2019-01-27T15:36:52.121Z,7.09
2019-01-27T15:39:21.665Z,6.97
2019-01-27T15:41:50.898Z,7.03
2019-01-27T15:44:20.085Z,7.09
2019-01-27T15:46:49.315Z,7.14
2019-01-27T15:49:18.485Z,7.12
2019-01-27T15:51:48.369Z,7.11
2019-01-27T15:54:17.553Z,7.13
2019-01-27T15:56:46.786Z,7.29
2019-01-27T15:59:15.967Z,7.20
2019-01-27T16:01:45.206Z,7.08
2019-01-27T16:04:14.380Z,7.06
2019-01-27T16:06:43.562Z,7.12
2019-01-27T16:09:12.795Z,7.14
2019-01-27T16:11:41.976Z,7.13
2019-01-27T16:14:11.219Z,7.15
2019-01-27T16:16:40.755Z,7.13
2019-01-27T16:19:09.985Z,7.09
2019-01-27T16:21:39.163Z,7.13
2019-01-27T16:26:53.934Z,7.18
2019-01-27T16:32:34.007Z,7.11
2019-01-27T16:35:06.678Z,7.12
2019-01-27T16:37:35.859Z,7.06
2019-01-27T16:40:44.976Z,7.10
2019-01-27T16:43:14.153Z,7.06
2019-01-27T16:45:43.400Z,7.04
2019-01-27T16:48:31.650Z,7.05
2019-01-27T16:51:00.898Z,6.98
2019-01-27T16:53:30.078Z,7.00
2019-01-27T16:55:59.317Z,7.05
2019-01-27T16:58:28.488Z,6.96
2019-01-27T17:00:58.044Z,7.00
2019-01-27T17:03:27.218Z,6.95
2019-01-27T17:05:56.748Z,6.88
2019-01-27T17:08:26.290Z,6.89
2019-01-27T17:10:55.527Z,6.87
2019-01-27T17:13:24.714Z,6.81
2019-01-27T17:15:53.946Z,6.89
2019-01-27T17:18:23.126Z,6.85
2019-01-27T17:20:52.374Z,6.95
2019-01-27T17:23:21.571Z,6.90
2019-01-27T17:25:53.647Z,6.87
2019-01-27T17:28:22.194Z,6.95
2019-01-27T17:30:51.457Z,7.02
2019-01-27T17:33:20.737Z,6.95
2019-01-27T17:35:49.913Z,6.95
2019-01-27T17:38:19.491Z,7.00
2019-01-27T17:40:48.721Z,6.98
2019-01-27T17:43:17.964Z,6.88
2019-01-27T17:45:47.157Z,6.88
2019-01-27T17:48:16.402Z,6.86
2019-01-27T17:50:45.600Z,6.90
2019-01-27T17:53:14.915Z,6.86
2019-01-27T17:55:45.224Z,6.97
2019-01-27T17:58:36.397Z,6.96
2019-01-27T18:01:45.254Z,7.05
2019-01-27T18:04:33.427Z,7.03
2019-01-27T18:07:21.924Z,7.01
2019-01-27T18:10:10.483Z,7.01
2019-01-27T18:12:58.980Z,6.95
2019-01-27T18:18:07.874Z,6.93
2019-01-27T18:20:37.538Z,6.86
2019-01-27T18:23:06.734Z,6.83
2019-01-27T18:25:35.928Z,6.83
2019-01-27T18:28:05.288Z,6.80
2019-01-27T18:30:34.503Z,6.83
2019-01-27T18:33:03.765Z,6.82
2019-01-27T18:35:32.991Z,6.80
2019-01-27T18:38:02.286Z,6.77
2019-01-27T18:40:31.521Z,6.68
2019-01-27T18:43:00.775Z,6.70
2019-01-27T18:45:29.985Z,6.81
2019-01-27T18:47:59.284Z,6.77
2019-01-27T18:50:28.483Z,6.79
2019-01-27T18:53:16.649Z,6.79
2019-01-27T18:56:04.768Z,6.82
2019-01-27T18:58:52.945Z,6.79
2019-01-27T19:01:41.136Z,6.77
2019-01-27T19:04:29.702Z,6.82
2019-01-27T19:07:17.867Z,6.75
2019-01-27T19:10:06.151Z,6.77
2019-01-27T19:12:54.269Z,6.79
2019-01-27T19:15:42.443Z,6.80
2019-01-27T19:18:30.601Z,6.81
2019-01-27T19:21:18.779Z,6.76
2019-01-27T19:24:06.900Z,6.69
2019-01-27T19:26:45.490Z,6.78
2019-01-27T19:29:21.799Z,6.73
2019-01-27T19:32:09.977Z,6.71
2019-01-27T19:34:45.050Z,6.68
2019-01-27T19:37:33.226Z,6.70
2019-01-27T19:40:21.348Z,6.71
2019-01-27T19:43:09.568Z,6.68
2019-01-27T19:45:57.694Z,6.59
2019-01-27T19:48:42.645Z,6.60
2019-01-27T19:51:30.754Z,6.61
2019-01-27T19:54:07.987Z,6.60
2019-01-27T19:56:44.400Z,6.56
2019-01-27T19:59:32.576Z,6.54
2019-01-27T20:02:20.692Z,6.52
2019-01-27T20:05:08.881Z,6.50
2019-01-27T20:07:57.117Z,6.48
2019-01-27T20:10:45.301Z,6.44
2019-01-27T20:13:33.798Z,6.40
2019-01-27T20:16:21.996Z,6.33
2019-01-27T20:19:10.240Z,6.30
2019-01-27T20:21:58.556Z,6.28
2019-01-27T20:24:46.957Z,6.22
2019-01-27T20:27:35.163Z,6.24
2019-01-27T20:30:44.368Z,6.25
2019-01-27T20:33:32.891Z,6.28
2019-01-27T20:36:21.136Z,6.26
2019-01-27T20:41:53.804Z,6.15
2019-01-27T20:44:41.984Z,6.05
2019-01-27T20:47:30.422Z,5.96
2019-01-27T20:50:18.544Z,5.75
2019-01-27T20:53:07.025Z,5.31
2019-01-27T20:55:46.959Z,5.13
2019-01-27T20:58:35.241Z,5.06
2019-01-27T21:04:31.956Z,4.89
2019-01-27T21:07:20.085Z,5.09
2019-01-27T21:10:12.376Z,5.12
2019-01-27T21:12:58.455Z,5.30
2019-01-27T21:15:47.880Z,5.41
2019-01-27T21:18:36.846Z,5.43
2019-01-27T21:21:06.190Z,5.49
2019-01-27T21:23:35.753Z,5.43
2019-01-27T21:26:05.096Z,5.38
2019-01-27T21:28:34.790Z,5.35
2019-01-27T21:31:04.374Z,5.31
2019-01-27T21:33:34.020Z,5.28
2019-01-27T21:36:03.309Z,5.24
2019-01-27T21:38:32.786Z,5.22
2019-01-27T21:41:02.147Z,5.16
2019-01-27T21:43:31.689Z,5.25
2019-01-27T21:46:00.907Z,5.29
2019-01-27T21:48:30.152Z,5.30
2019-01-27T21:50:59.721Z,5.32
2019-01-27T21:53:28.960Z,5.28
2019-01-27T21:55:58.139Z,5.32
2019-01-27T21:58:27.371Z,5.32
2019-01-27T22:00:56.615Z,5.36
2019-01-27T22:03:25.866Z,5.39
2019-01-27T22:06:34.442Z,5.38
2019-01-27T22:11:58.414Z,5.32
2019-01-27T22:14:28.009Z,5.25
2019-01-27T22:16:57.192Z,5.10
2019-01-27T22:19:26.428Z,5.13
2019-01-27T22:27:59.476Z,5.19
2019-01-27T22:30:28.705Z,5.22
2019-01-27T22:32:58.292Z,5.24
2019-01-27T22:35:28.145Z,5.33
2019-01-27T22:37:57.595Z,5.33
2019-01-27T22:40:26.775Z,5.38
2019-01-27T22:42:56.071Z,5.23
2019-01-27T22:45:25.383Z,5.31
2019-01-27T22:47:54.608Z,5.31
2019-01-27T22:50:24.090Z,5.34
2019-01-27T22:52:53.669Z,5.35
2019-01-27T22:55:22.861Z,5.37
2019-01-27T22:57:52.130Z,5.34
2019-01-27T23:01:02.070Z,5.32
2019-01-27T23:03:53.126Z,5.33
2019-01-27T23:06:22.898Z,5.26
2019-01-27T23:08:52.077Z,5.31
2019-01-27T23:11:21.367Z,5.29
2019-01-27T23:13:50.771Z,5.27
2019-01-27T23:16:19.963Z,5.28
2019-01-27T23:18:49.196Z,5.28
2019-01-27T23:21:18.374Z,5.18
2019-01-27T23:23:47.728Z,5.22
2019-01-27T23:26:16.907Z,5.15
2019-01-27T23:28:46.140Z,5.08
2019-01-27T23:31:15.622Z,5.09
2019-01-27T23:33:44.867Z,5.07
2019-01-27T23:36:14.046Z,4.92
2019-01-27T23:38:43.353Z,4.93
2019-01-27T23:41:12.594Z,4.99
2019-01-27T23:43:41.828Z,4.99
2019-01-27T23:46:11.057Z,4.93
2019-01-27T23:48:40.231Z,4.88
2019-01-27T23:51:09.468Z,4.81
2019-01-27T23:53:38.651Z,4.73
2019-01-27T23:56:07.895Z,4.70
2019-01-27T23:58:37.071Z,4.64
